PWSweather.com
Personal Weather Stations
Station Observations
KMNGREYC2
Grey Cloud Island, Grey Cloud Island, MN 55071

Grey Cloud IslandGrey Cloud Island, MN 55071

Lat: 44.799333, Lon: -92.987851

Elevation: 700

Station Type: Davis VP2

www.jagielski.com/weather/conditions.htm

High Low Average
Temperature 84.2°F29.0°C 65.6°F18.7°C 73.3°F22.9°C
Dew Point 74.0°F23.3°C 63.2°F17.3°C 69.5°F20.8°C
Winds 2.0 mph 3.2 kmh Calm Calm Calm SECalm SE
Wind Gusts 4.0 mph6.4 kmh -- 1.0 mph1.6 kmh
Humidity 99% 65% 89%
Pressure 29.79 in1008.8 mb 29.72 in1006.4 mb -
Precipitation 0.00 in0.0 mm - -
Hour Temp Dew Point Humidity Winds Wind Gusts Pressure Precip Precip Rate Daily Precip Total
12:00 AM 69.7°F20.9°C 68.8°F20.4°C 97% Calm Calm 2.0 mph3.2 kmh 29.80 in1009.1 mb 0.07 in1.8 mm 0.00 in0.0 mm 0.07 in1.8 mm
12:15 AM 69.5°F20.8°C 68.6°F20.3°C 97% Calm Calm -- 29.80 in1009.1 mb 0.04 in1.0 mm 0.00 in0.0 mm 0.07 in1.8 mm
12:30 AM 69.3°F20.7°C 68.4°F20.2°C 97% Calm Calm -- 29.79 in1008.8 mb 0.04 in1.0 mm 0.00 in0.0 mm 0.07 in1.8 mm
12:45 AM 69.2°F20.7°C 68.3°F20.2°C 97% Calm Calm -- 29.79 in1008.8 mb 0.01 in0.3 mm 0.00 in0.0 mm 0.07 in1.8 mm
01:00 AM 69.1°F20.6°C 68.5°F20.3°C 98% Calm Calm -- 29.79 in1008.8 mb 0.01 in0.3 mm 0.00 in0.0 mm 0.07 in1.8 mm
01:15 AM 69.1°F20.6°C 68.5°F20.3°C 98% Calm Calm -- 29.79 in1008.8 mb 0.00 in0.0 mm 0.00 in0.0 mm 0.07 in1.8 mm
01:30 AM 69.0°F20.6°C 68.1°F20.1°C 97% Calm Calm -- 29.79 in1008.8 mb 0.00 in0.0 mm 0.00 in0.0 mm 0.07 in1.8 mm
01:45 AM 69.0°F20.6°C 68.4°F20.2°C 98% Calm Calm -- 29.78 in1008.5 mb 0.00 in0.0 mm 0.00 in0.0 mm 0.07 in1.8 mm
02:00 AM 69.0°F20.6°C 68.4°F20.2°C 98% Calm Calm -- 29.79 in1008.8 mb 0.01 in0.3 mm 0.01 in0.3 mm 0.08 in2.0 mm
02:15 AM 69.0°F20.6°C 68.4°F20.2°C 98% Calm Calm -- 29.78 in1008.5 mb 0.01 in0.3 mm 0.00 in0.0 mm 0.08 in2.0 mm
02:30 AM 69.1°F20.6°C 68.5°F20.3°C 98% Calm Calm -- 29.77 in1008.1 mb 0.01 in0.3 mm 0.00 in0.0 mm 0.08 in2.0 mm
02:45 AM 69.1°F20.6°C 68.5°F20.3°C 98% Calm Calm 1.0 mph1.6 kmh 29.77 in1008.1 mb 0.01 in0.3 mm 0.00 in0.0 mm 0.08 in2.0 mm
03:00 AM 69.2°F20.7°C 68.6°F20.3°C 98% Calm Calm 1.0 mph1.6 kmh 29.78 in1008.5 mb 0.01 in0.3 mm 0.00 in0.0 mm 0.08 in2.0 mm
03:15 AM 69.2°F20.7°C 68.6°F20.3°C 98% Calm Calm -- 29.77 in1008.1 mb 0.00 in0.0 mm 0.00 in0.0 mm 0.08 in2.0 mm
03:30 AM 69.2°F20.7°C 68.6°F20.3°C 98% Calm Calm -- 29.76 in1007.8 mb 0.01 in0.3 mm 0.04 in1.0 mm 0.09 in2.3 mm
03:45 AM 69.2°F20.7°C 68.6°F20.3°C 98% Calm Calm 2.0 mph3.2 kmh 29.77 in1008.1 mb 0.01 in0.3 mm 0.00 in0.0 mm 0.09 in2.3 mm
04:00 AM 69.3°F20.7°C 68.7°F20.4°C 98% Calm Calm 2.0 mph3.2 kmh 29.76 in1007.8 mb 0.06 in1.5 mm 0.07 in1.8 mm 0.14 in3.6 mm
04:15 AM 69.3°F20.7°C 68.7°F20.4°C 98% 1.0 mph NNE1.6 kmh NNE 2.0 mph3.2 kmh 29.75 in1007.5 mb 0.09 in2.3 mm 0.12 in3.0 mm 0.17 in4.3 mm
04:30 AM 69.2°F20.7°C 68.6°F20.3°C 98% Calm Calm 2.0 mph3.2 kmh 29.74 in1007.1 mb 0.10 in2.5 mm 0.04 in1.0 mm 0.18 in4.6 mm
04:45 AM 69.2°F20.7°C 68.6°F20.3°C 98% Calm Calm -- 29.75 in1007.5 mb 0.09 in2.3 mm 0.00 in0.0 mm 0.18 in4.6 mm
05:00 AM 69.2°F20.7°C 68.6°F20.3°C 98% Calm Calm -- 29.75 in1007.5 mb 0.09 in2.3 mm 0.00 in0.0 mm 0.18 in4.6 mm
05:15 AM 69.1°F20.6°C 68.5°F20.3°C 98% Calm Calm -- 29.76 in1007.8 mb 0.03 in0.8 mm 0.00 in0.0 mm 0.18 in4.6 mm
05:30 AM 69.1°F20.6°C 68.5°F20.3°C 98% Calm Calm 2.0 mph3.2 kmh 29.76 in1007.8 mb 0.03 in0.8 mm 0.00 in0.0 mm 0.18 in4.6 mm
05:45 AM 68.9°F20.5°C 68.3°F20.2°C 98% Calm Calm 1.0 mph1.6 kmh 29.75 in1007.5 mb 0.00 in0.0 mm 0.00 in0.0 mm 0.18 in4.6 mm
06:00 AM 68.8°F20.4°C 68.2°F20.1°C 98% Calm Calm 1.0 mph1.6 kmh 29.75 in1007.5 mb 0.00 in0.0 mm 0.00 in0.0 mm 0.18 in4.6 mm
06:15 AM 68.6°F20.3°C 68.0°F20.0°C 98% Calm Calm 1.0 mph1.6 kmh 29.75 in1007.5 mb 0.00 in0.0 mm 0.00 in0.0 mm 0.18 in4.6 mm
06:30 AM 68.5°F20.3°C 67.9°F19.9°C 98% Calm Calm 2.0 mph3.2 kmh 29.75 in1007.5 mb 0.00 in0.0 mm 0.00 in0.0 mm 0.18 in4.6 mm
06:45 AM 68.4°F20.2°C 67.8°F19.9°C 98% Calm Calm -- 29.75 in1007.5 mb 0.00 in0.0 mm 0.00 in0.0 mm 0.18 in4.6 mm
07:00 AM 68.4°F20.2°C 67.8°F19.9°C 98% Calm Calm -- 29.75 in1007.5 mb 0.00 in0.0 mm 0.00 in0.0 mm 0.18 in4.6 mm
07:15 AM 68.5°F20.3°C 67.9°F19.9°C 98% Calm Calm -- 29.75 in1007.5 mb 0.00 in0.0 mm 0.00 in0.0 mm 0.18 in4.6 mm
07:30 AM 68.5°F20.3°C 67.9°F19.9°C 98% Calm Calm -- 29.77 in1008.1 mb 0.00 in0.0 mm 0.00 in0.0 mm 0.18 in4.6 mm
07:45 AM 68.6°F20.3°C 68.0°F20.0°C 98% Calm Calm -- 29.77 in1008.1 mb 0.00 in0.0 mm 0.00 in0.0 mm 0.18 in4.6 mm
08:00 AM 68.6°F20.3°C 68.0°F20.0°C 98% Calm Calm -- 29.77 in1008.1 mb 0.00 in0.0 mm 0.00 in0.0 mm 0.18 in4.6 mm
08:15 AM 68.8°F20.4°C 68.2°F20.1°C 98% Calm Calm -- 29.77 in1008.1 mb 0.00 in0.0 mm 0.00 in0.0 mm 0.18 in4.6 mm
08:30 AM 68.9°F20.5°C 68.3°F20.2°C 98% Calm Calm -- 29.78 in1008.5 mb 0.00 in0.0 mm 0.00 in0.0 mm 0.18 in4.6 mm
08:45 AM 69.2°F20.7°C 68.9°F20.5°C 99% Calm Calm -- 29.78 in1008.5 mb 0.00 in0.0 mm 0.00 in0.0 mm 0.18 in4.6 mm
09:00 AM 69.3°F20.7°C 69.0°F20.6°C 99% Calm Calm 1.0 mph1.6 kmh 29.78 in1008.5 mb 0.00 in0.0 mm 0.00 in0.0 mm 0.18 in4.6 mm
09:15 AM 69.5°F20.8°C 69.2°F20.7°C 99% Calm Calm -- 29.78 in1008.5 mb 0.00 in0.0 mm 0.00 in0.0 mm 0.18 in4.6 mm
09:30 AM 69.6°F20.9°C 69.0°F20.6°C 98% Calm Calm -- 29.79 in1008.8 mb 0.00 in0.0 mm 0.00 in0.0 mm 0.18 in4.6 mm
09:45 AM 69.8°F21.0°C 69.5°F20.8°C 99% Calm Calm -- 29.78 in1008.5 mb 0.00 in0.0 mm 0.00 in0.0 mm 0.18 in4.6 mm
10:00 AM 70.1°F21.2°C 69.8°F21.0°C 99% Calm Calm 3.0 mph4.8 kmh 29.78 in1008.5 mb 0.00 in0.0 mm 0.00 in0.0 mm 0.18 in4.6 mm
10:15 AM 70.3°F21.3°C 70.0°F21.1°C 99% Calm Calm 3.0 mph4.8 kmh 29.78 in1008.5 mb 0.00 in0.0 mm 0.00 in0.0 mm 0.18 in4.6 mm
10:30 AM 70.7°F21.5°C 70.4°F21.3°C 99% Calm Calm 3.0 mph4.8 kmh 29.78 in1008.5 mb 0.00 in0.0 mm 0.00 in0.0 mm 0.18 in4.6 mm
10:45 AM 70.9°F21.6°C 70.6°F21.4°C 99% Calm Calm 1.0 mph1.6 kmh 29.78 in1008.5 mb 0.00 in0.0 mm 0.00 in0.0 mm 0.18 in4.6 mm
11:00 AM 71.2°F21.8°C 70.9°F21.6°C 99% Calm Calm 1.0 mph1.6 kmh 29.78 in1008.5 mb 0.00 in0.0 mm 0.00 in0.0 mm 0.18 in4.6 mm
11:15 AM 71.2°F21.8°C 70.9°F21.6°C 99% Calm Calm 2.0 mph3.2 kmh 29.78 in1008.5 mb 0.00 in0.0 mm 0.00 in0.0 mm 0.18 in4.6 mm
11:30 AM 71.3°F21.8°C 71.0°F21.7°C 99% Calm Calm 3.0 mph4.8 kmh 29.78 in1008.5 mb 0.00 in0.0 mm 0.00 in0.0 mm 0.18 in4.6 mm
11:45 AM 71.5°F21.9°C 70.9°F21.6°C 98% Calm Calm 2.0 mph3.2 kmh 29.77 in1008.1 mb 0.00 in0.0 mm 0.00 in0.0 mm 0.18 in4.6 mm
12:00 PM 71.9°F22.2°C 71.6°F22.0°C 99% Calm Calm 3.0 mph4.8 kmh 29.78 in1008.5 mb 0.00 in0.0 mm 0.00 in0.0 mm 0.18 in4.6 mm
12:15 PM 72.7°F22.6°C 72.4°F22.4°C 99% Calm Calm 3.0 mph4.8 kmh 29.78 in1008.5 mb 0.00 in0.0 mm 0.00 in0.0 mm 0.18 in4.6 mm
12:30 PM 73.6°F23.1°C 73.3°F22.9°C 99% Calm Calm 3.0 mph4.8 kmh 29.78 in1008.5 mb 0.00 in0.0 mm 0.00 in0.0 mm 0.18 in4.6 mm
12:45 PM 74.1°F23.4°C 73.5°F23.1°C 98% Calm Calm 3.0 mph4.8 kmh 29.77 in1008.1 mb 0.00 in0.0 mm 0.00 in0.0 mm 0.18 in4.6 mm
01:00 PM 75.0°F23.9°C 73.8°F23.2°C 96% Calm Calm 3.0 mph4.8 kmh 29.77 in1008.1 mb 0.01 in0.3 mm 0.01 in0.3 mm 0.19 in4.8 mm
01:15 PM 76.5°F24.7°C 74.0°F23.3°C 92% Calm Calm 1.0 mph1.6 kmh 29.77 in1008.1 mb 0.01 in0.3 mm 0.00 in0.0 mm 0.19 in4.8 mm
01:30 PM 77.8°F25.4°C 74.0°F23.3°C 88% Calm Calm 4.0 mph6.4 kmh 29.77 in1008.1 mb 0.01 in0.3 mm 0.00 in0.0 mm 0.19 in4.8 mm
01:45 PM 78.6°F25.9°C 72.7°F22.6°C 82% Calm Calm 3.0 mph4.8 kmh 29.77 in1008.1 mb 0.01 in0.3 mm 0.00 in0.0 mm 0.19 in4.8 mm
02:00 PM 79.3°F26.3°C 72.6°F22.6°C 80% Calm Calm 3.0 mph4.8 kmh 29.77 in1008.1 mb 0.01 in0.3 mm 0.00 in0.0 mm 0.19 in4.8 mm
02:15 PM 80.1°F26.7°C 72.6°F22.6°C 78% Calm Calm 4.0 mph6.4 kmh 29.77 in1008.1 mb 0.00 in0.0 mm 0.00 in0.0 mm 0.19 in4.8 mm
02:30 PM 80.4°F26.9°C 72.2°F22.3°C 76% Calm Calm 4.0 mph6.4 kmh 29.77 in1008.1 mb 0.00 in0.0 mm 0.00 in0.0 mm 0.19 in4.8 mm
02:45 PM 80.9°F27.2°C 71.8°F22.1°C 74% Calm Calm 2.0 mph3.2 kmh 29.77 in1008.1 mb 0.00 in0.0 mm 0.00 in0.0 mm 0.19 in4.8 mm
03:00 PM 81.7°F27.6°C 71.8°F22.1°C 72% 1.0 mph SSW1.6 kmh SSW 3.0 mph4.8 kmh 29.77 in1008.1 mb 0.00 in0.0 mm 0.00 in0.0 mm 0.19 in4.8 mm
03:15 PM 82.4°F28.0°C 72.9°F22.7°C 73% Calm Calm 4.0 mph6.4 kmh 29.77 in1008.1 mb 0.00 in0.0 mm 0.00 in0.0 mm 0.19 in4.8 mm
03:30 PM 83.2°F28.4°C 72.8°F22.7°C 71% Calm Calm 4.0 mph6.4 kmh 29.77 in1008.1 mb 0.00 in0.0 mm 0.00 in0.0 mm 0.19 in4.8 mm
03:45 PM 83.7°F28.7°C 71.1°F21.7°C 66% Calm Calm 3.0 mph4.8 kmh 29.77 in1008.1 mb 0.00 in0.0 mm 0.00 in0.0 mm 0.19 in4.8 mm
04:00 PM 83.7°F28.7°C 70.7°F21.5°C 65% Calm Calm 3.0 mph4.8 kmh 29.76 in1007.8 mb 0.00 in0.0 mm 0.00 in0.0 mm 0.19 in4.8 mm
04:15 PM 84.1°F28.9°C 72.0°F22.2°C 67% 2.0 mph SW3.2 kmh SW 2.0 mph3.2 kmh 29.76 in1007.8 mb 0.00 in0.0 mm 0.00 in0.0 mm 0.19 in4.8 mm
04:30 PM 84.1°F28.9°C 72.4°F22.4°C 68% Calm Calm 3.0 mph4.8 kmh 29.75 in1007.5 mb 0.00 in0.0 mm 0.00 in0.0 mm 0.19 in4.8 mm
04:45 PM 84.2°F29.0°C 71.2°F21.8°C 65% Calm Calm 4.0 mph6.4 kmh 29.75 in1007.5 mb 0.00 in0.0 mm 0.00 in0.0 mm 0.19 in4.8 mm
05:00 PM 84.0°F28.9°C 71.4°F21.9°C 66% Calm Calm 4.0 mph6.4 kmh 29.75 in1007.5 mb 0.00 in0.0 mm 0.00 in0.0 mm 0.19 in4.8 mm
05:15 PM 83.5°F28.6°C 71.4°F21.9°C 67% Calm Calm 2.0 mph3.2 kmh 29.75 in1007.5 mb 0.00 in0.0 mm 0.00 in0.0 mm 0.19 in4.8 mm
05:30 PM 83.1°F28.4°C 71.5°F21.9°C 68% Calm Calm 3.0 mph4.8 kmh 29.75 in1007.5 mb 0.00 in0.0 mm 0.00 in0.0 mm 0.19 in4.8 mm
05:45 PM 82.8°F28.2°C 72.9°F22.7°C 72% Calm Calm 1.0 mph1.6 kmh 29.74 in1007.1 mb 0.00 in0.0 mm 0.00 in0.0 mm 0.19 in4.8 mm
06:00 PM 82.5°F28.1°C 71.3°F21.8°C 69% Calm Calm 1.0 mph1.6 kmh 29.73 in1006.8 mb 0.00 in0.0 mm 0.00 in0.0 mm 0.19 in4.8 mm
06:15 PM 82.0°F27.8°C 72.5°F22.5°C 73% Calm Calm 2.0 mph3.2 kmh 29.74 in1007.1 mb 0.00 in0.0 mm 0.00 in0.0 mm 0.19 in4.8 mm
06:30 PM 81.2°F27.3°C 71.3°F21.8°C 72% Calm Calm 2.0 mph3.2 kmh 29.73 in1006.8 mb 0.00 in0.0 mm 0.00 in0.0 mm 0.19 in4.8 mm
06:45 PM 80.5°F26.9°C 70.7°F21.5°C 72% 1.0 mph SSW1.6 kmh SSW 4.0 mph6.4 kmh 29.73 in1006.8 mb 0.00 in0.0 mm 0.00 in0.0 mm 0.19 in4.8 mm
07:00 PM 80.0°F26.7°C 71.0°F21.7°C 74% Calm Calm 4.0 mph6.4 kmh 29.73 in1006.8 mb 0.00 in0.0 mm 0.00 in0.0 mm 0.19 in4.8 mm
07:15 PM 79.4°F26.3°C 70.8°F21.6°C 75% Calm Calm 1.0 mph1.6 kmh 29.72 in1006.4 mb 0.00 in0.0 mm 0.00 in0.0 mm 0.19 in4.8 mm
07:30 PM 79.0°F26.1°C 71.2°F21.8°C 77% Calm Calm 1.0 mph1.6 kmh 29.72 in1006.4 mb 0.00 in0.0 mm 0.00 in0.0 mm 0.19 in4.8 mm
07:45 PM 78.4°F25.8°C 71.0°F21.7°C 78% Calm Calm 1.0 mph1.6 kmh 29.72 in1006.4 mb 0.00 in0.0 mm 0.00 in0.0 mm 0.19 in4.8 mm
08:00 PM 78.0°F25.6°C 71.3°F21.8°C 80% Calm Calm 1.0 mph1.6 kmh 29.72 in1006.4 mb 0.00 in0.0 mm 0.00 in0.0 mm 0.19 in4.8 mm
08:15 PM 77.3°F25.2°C 70.7°F21.5°C 80% Calm Calm 2.0 mph3.2 kmh 29.72 in1006.4 mb 0.00 in0.0 mm 0.00 in0.0 mm 0.19 in4.8 mm
08:30 PM 76.7°F24.8°C 70.8°F21.6°C 82% Calm Calm 2.0 mph3.2 kmh 29.72 in1006.4 mb 0.00 in0.0 mm 0.00 in0.0 mm 0.19 in4.8 mm
08:45 PM 76.1°F24.5°C 69.9°F21.1°C 81% Calm Calm -- 29.73 in1006.8 mb 0.00 in0.0 mm 0.00 in0.0 mm 0.19 in4.8 mm
09:00 PM 75.3°F24.1°C 69.4°F20.8°C 82% Calm Calm -- 29.72 in1006.4 mb 0.00 in0.0 mm 0.00 in0.0 mm 0.19 in4.8 mm
09:15 PM 74.2°F23.4°C 68.4°F20.2°C 82% Calm Calm -- 29.73 in1006.8 mb 0.00 in0.0 mm 0.00 in0.0 mm 0.19 in4.8 mm
09:30 PM 73.2°F22.9°C 67.7°F19.8°C 83% Calm Calm -- 29.74 in1007.1 mb 0.00 in0.0 mm 0.00 in0.0 mm 0.19 in4.8 mm
09:45 PM 72.1°F22.3°C 67.0°F19.4°C 84% Calm Calm -- 29.75 in1007.5 mb 0.00 in0.0 mm 0.00 in0.0 mm 0.19 in4.8 mm
10:00 PM 71.2°F21.8°C 66.5°F19.2°C 85% Calm Calm -- 29.76 in1007.8 mb 0.00 in0.0 mm 0.00 in0.0 mm 0.19 in4.8 mm
10:15 PM 70.3°F21.3°C 66.3°F19.1°C 87% Calm Calm -- 29.77 in1008.1 mb 0.00 in0.0 mm 0.00 in0.0 mm 0.19 in4.8 mm
10:30 PM 69.6°F20.9°C 65.9°F18.8°C 88% Calm Calm -- 29.78 in1008.5 mb 0.00 in0.0 mm 0.00 in0.0 mm 0.19 in4.8 mm
10:45 PM 69.0°F20.6°C 65.6°F18.7°C 89% Calm Calm -- 29.78 in1008.5 mb 0.00 in0.0 mm 0.00 in0.0 mm 0.19 in4.8 mm
11:00 PM 68.5°F20.3°C 65.1°F18.4°C 89% Calm Calm -- 29.77 in1008.1 mb 0.00 in0.0 mm 0.00 in0.0 mm 0.19 in4.8 mm
11:15 PM 67.9°F19.9°C 64.9°F18.3°C 90% Calm Calm -- 29.77 in1008.1 mb 0.00 in0.0 mm 0.00 in0.0 mm 0.19 in4.8 mm
11:30 PM 67.4°F19.7°C 64.7°F18.2°C 91% Calm Calm -- 29.77 in1008.1 mb 0.00 in0.0 mm 0.00 in0.0 mm 0.19 in4.8 mm
11:45 PM 67.1°F19.5°C 64.7°F18.2°C 92% Calm Calm -- 29.78 in1008.5 mb 0.00 in0.0 mm 0.00 in0.0 mm 0.19 in4.8 mm